Time;durP1;ratioP1;P1;durP2;ratioP2;P2;SDS_P1;SDS_P2;PMS_P1;PMS_P2;Temp;Humidity;BMP_temperature;BMP_pressure;BME280_temperature;BME280_humidity;BME280_pressure;Samples;Min_cycle;Max_cycle;Signal;HPM_P1;HPM_P2
2022/08/03 00:00:59;;;;;;;20.10;10.65;;;;;;;;;;4390260;32;20166;-64
2022/08/03 00:03:25;;;;;;;16.62;11.20;;;;;;;;;;4390665;32;20127;-64
2022/08/03 00:05:52;;;;;;;17.83;11.07;;;;;;;;;;4364920;32;20215;-64
2022/08/03 00:08:19;;;;;;;18.42;10.77;;;;;;;;;;4377857;32;20108;-64
2022/08/03 00:10:46;;;;;;;19.65;10.68;;;;;;;;;;4390625;32;20097;-64
2022/08/03 00:13:12;;;;;;;16.37;10.43;;;;;;;;;;4391329;32;20077;-65
2022/08/03 00:15:42;;;;;;;13.43;9.85;;;;;;;;;;4391351;32;20161;-64
2022/08/03 00:18:09;;;;;;;21.55;11.50;;;;;;;;;;4391470;32;20170;-64
2022/08/03 00:20:36;;;;;;;17.08;10.18;;;;;;;;;;4390224;32;20088;-64
2022/08/03 00:23:03;;;;;;;18.55;11.10;;;;;;;;;;4390089;32;20057;-65
2022/08/03 00:25:30;;;;;;;17.83;10.95;;;;;;;;;;4377403;32;20076;-64
2022/08/03 00:27:56;;;;;;;19.95;10.57;;;;;;;;;;4390064;32;20057;-64
2022/08/03 00:30:23;;;;;;;15.90;10.45;;;;;;;;;;4391635;32;20078;-64
2022/08/03 00:32:50;;;;;;;15.23;10.27;;;;;;;;;;4389999;32;20496;-64
2022/08/03 00:35:16;;;;;;;14.00;9.75;;;;;;;;;;4377336;32;20101;-64
2022/08/03 00:37:43;;;;;;;13.62;9.90;;;;;;;;;;4378088;32;20081;-64
2022/08/03 00:40:14;;;;;;;14.35;9.20;;;;;;;;;;4377161;32;20089;-63
2022/08/03 00:42:52;;;;;;;16.73;10.40;;;;;;;;;;4377561;32;20066;-64
2022/08/03 00:45:24;;;;;;;17.70;10.18;;;;;;;;;;4389996;32;20087;-64
2022/08/03 00:47:51;;;;;;;14.00;10.00;;;;;;;;;;4390687;32;20178;-64
2022/08/03 00:50:19;;;;;;;16.35;9.13;;;;;;;;;;4390318;32;20138;-65
2022/08/03 00:52:46;;;;;;;15.85;9.30;;;;;;;;;;4391786;32;20081;-64
2022/08/03 00:55:13;;;;;;;15.38;9.45;;;;;;;;;;4380432;32;20140;-64
2022/08/03 00:57:41;;;;;;;12.40;8.85;;;;;;;;;;4380817;32;20073;-65
2022/08/03 01:00:10;;;;;;;15.90;9.23;;;;;;;;;;4394427;32;20515;-64
2022/08/03 01:02:37;;;;;;;15.15;9.13;;;;;;;;;;4394293;32;20076;-65
2022/08/03 01:05:04;;;;;;;14.87;9.77;;;;;;;;;;4380143;32;20064;-64
2022/08/03 01:07:42;;;;;;;16.85;9.45;;;;;;;;;;4392519;32;20165;-64
2022/08/03 01:10:28;;;;;;;17.62;10.00;;;;;;;;;;4392652;32;20541;-64
2022/08/03 01:13:03;;;;;;;13.98;9.27;;;;;;;;;;4394456;32;20576;-64
2022/08/03 01:16:04;;;;;;;12.83;8.87;;;;;;;;;;4367583;32;20456;-65
2022/08/03 01:18:54;;;;;;;14.75;8.63;;;;;;;;;;4393887;32;20509;-64
2022/08/03 01:21:31;;;;;;;15.73;8.88;;;;;;;;;;4368335;32;20154;-64
2022/08/03 01:24:17;;;;;;;12.25;8.43;;;;;;;;;;4393864;32;20529;-63
2022/08/03 01:27:02;;;;;;;13.80;8.75;;;;;;;;;;4393781;32;20502;-64
2022/08/03 01:29:28;;;;;;;16.48;9.38;;;;;;;;;;4393997;32;20081;-64
2022/08/03 01:32:13;;;;;;;13.75;9.10;;;;;;;;;;4393694;32;20463;-64
2022/08/03 01:34:54;;;;;;;16.37;8.52;;;;;;;;;;4393122;32;20085;-65
2022/08/03 01:37:28;;;;;;;13.40;9.07;;;;;;;;;;4393073;32;20077;-64
2022/08/03 01:39:56;;;;;;;14.40;8.88;;;;;;;;;;4380323;32;20527;-64
2022/08/03 01:42:24;;;;;;;14.43;8.18;;;;;;;;;;4385487;32;20069;-67
2022/08/03 01:44:52;;;;;;;12.98;8.02;;;;;;;;;;4393701;32;20069;-64
2022/08/03 01:47:21;;;;;;;14.57;9.18;;;;;;;;;;4403890;32;20107;-64
2022/08/03 01:49:48;;;;;;;14.23;8.77;;;;;;;;;;4397958;32;20564;-64
2022/08/03 01:52:19;;;;;;;13.90;9.80;;;;;;;;;;4391715;32;20097;-64
2022/08/03 01:54:48;;;;;;;12.80;8.88;;;;;;;;;;4379746;32;20197;-65
2022/08/03 01:57:16;;;;;;;13.82;8.07;;;;;;;;;;4392535;32;20082;-64
2022/08/03 01:59:44;;;;;;;13.30;8.35;;;;;;;;;;4392687;32;20074;-64
2022/08/03 02:02:15;;;;;;;14.25;9.07;;;;;;;;;;4367295;32;20092;-64
2022/08/03 02:04:43;;;;;;;14.57;9.18;;;;;;;;;;4379172;32;20506;-64
2022/08/03 02:07:11;;;;;;;13.02;8.60;;;;;;;;;;4366944;32;20066;-63
2022/08/03 02:09:40;;;;;;;13.35;8.73;;;;;;;;;;4391671;32;20180;-65
2022/08/03 02:12:10;;;;;;;13.77;8.95;;;;;;;;;;4379584;32;20171;-64
2022/08/03 02:14:38;;;;;;;12.57;8.07;;;;;;;;;;4392336;32;20582;-64
2022/08/03 02:17:06;;;;;;;16.60;9.82;;;;;;;;;;4391908;32;20539;-64
2022/08/03 02:19:34;;;;;;;11.40;8.43;;;;;;;;;;4393121;32;20152;-64
2022/08/03 02:22:02;;;;;;;16.17;9.20;;;;;;;;;;4391839;32;20059;-63
2022/08/03 02:24:29;;;;;;;11.25;8.43;;;;;;;;;;4391391;32;20541;-65
2022/08/03 02:26:57;;;;;;;14.68;9.25;;;;;;;;;;4391639;32;20073;-65
2022/08/03 02:29:25;;;;;;;14.55;7.62;;;;;;;;;;4391768;32;20070;-64
2022/08/03 02:31:53;;;;;;;16.37;8.50;;;;;;;;;;4392086;32;20101;-64
2022/08/03 02:34:23;;;;;;;13.90;8.77;;;;;;;;;;4391489;32;20152;-65
2022/08/03 02:36:52;;;;;;;14.30;8.32;;;;;;;;;;4367278;32;20076;-64
2022/08/03 02:39:21;;;;;;;15.40;8.68;;;;;;;;;;4378831;32;20071;-64
2022/08/03 02:41:51;;;;;;;19.00;9.15;;;;;;;;;;4391369;32;20607;-64
2022/08/03 02:44:24;;;;;;;14.98;9.20;;;;;;;;;;4391845;32;20085;-63
2022/08/03 02:46:55;;;;;;;13.73;9.15;;;;;;;;;;4378938;32;20077;-65
2022/08/03 02:49:22;;;;;;;15.13;9.02;;;;;;;;;;4378741;32;20523;-65
2022/08/03 02:51:49;;;;;;;13.45;8.52;;;;;;;;;;4391479;32;20157;-64
2022/08/03 02:54:18;;;;;;;15.85;8.43;;;;;;;;;;4378906;32;20447;-64
2022/08/03 02:56:46;;;;;;;13.98;8.73;;;;;;;;;;4391367;32;20236;-64
2022/08/03 02:59:13;;;;;;;19.73;9.23;;;;;;;;;;4378984;32;20137;-65
2022/08/03 03:01:40;;;;;;;19.00;9.13;;;;;;;;;;4391222;32;20080;-64
2022/08/03 03:04:07;;;;;;;13.25;8.85;;;;;;;;;;4391387;32;20073;-64
2022/08/03 03:06:35;;;;;;;15.80;9.48;;;;;;;;;;4390731;32;20243;-65
2022/08/03 03:09:02;;;;;;;17.10;9.07;;;;;;;;;;4378461;32;20153;-65
2022/08/03 03:11:29;;;;;;;13.75;8.57;;;;;;;;;;4378019;32;20571;-64
2022/08/03 03:13:57;;;;;;;14.45;9.02;;;;;;;;;;4391219;32;20081;-63
2022/08/03 03:16:26;;;;;;;13.80;8.43;;;;;;;;;;4377556;32;20089;-64
2022/08/03 03:18:54;;;;;;;19.05;9.32;;;;;;;;;;4377946;32;20499;-65
2022/08/03 03:21:21;;;;;;;18.52;9.38;;;;;;;;;;4378086;32;20113;-64
2022/08/03 03:23:48;;;;;;;18.33;8.88;;;;;;;;;;4366501;32;20096;-64
2022/08/03 03:26:15;;;;;;;15.40;9.02;;;;;;;;;;4378068;32;20174;-64
2022/08/03 03:28:42;;;;;;;17.80;7.95;;;;;;;;;;4392264;32;20077;-65
2022/08/03 03:31:09;;;;;;;13.65;8.00;;;;;;;;;;4390370;32;20551;-63
2022/08/03 03:33:37;;;;;;;15.57;8.35;;;;;;;;;;4390479;32;20066;-65
2022/08/03 03:36:05;;;;;;;12.80;8.20;;;;;;;;;;4390728;32;20070;-64
2022/08/03 03:38:32;;;;;;;12.52;8.25;;;;;;;;;;4378119;32;20105;-64
2022/08/03 03:40:59;;;;;;;16.33;8.55;;;;;;;;;;4390579;32;20081;-64
2022/08/03 03:43:26;;;;;;;14.18;9.02;;;;;;;;;;4365556;32;20089;-64
2022/08/03 03:45:53;;;;;;;16.73;9.43;;;;;;;;;;4390156;32;20069;-65
2022/08/03 03:48:19;;;;;;;18.20;9.98;;;;;;;;;;4377920;32;20606;-64
2022/08/03 03:50:47;;;;;;;15.55;8.63;;;;;;;;;;4390034;32;20062;-64
2022/08/03 03:53:15;;;;;;;14.25;8.43;;;;;;;;;;4365712;32;20066;-65
2022/08/03 03:55:42;;;;;;;17.80;8.93;;;;;;;;;;4390409;32;20530;-64
2022/08/03 03:58:09;;;;;;;16.00;8.15;;;;;;;;;;4390370;32;20097;-64
2022/08/03 04:00:35;;;;;;;17.25;9.77;;;;;;;;;;4378179;32;20089;-65
2022/08/03 04:03:02;;;;;;;15.25;9.02;;;;;;;;;;4390712;32;20076;-65
2022/08/03 04:11:11;;;;;;;16.42;9.68;;;;;;;;;;4379331;32;20168;-64
2022/08/03 04:13:54;;;;;;;16.60;8.70;;;;;;;;;;4392647;32;20132;-64
2022/08/03 04:16:24;;;;;;;19.92;10.27;;;;;;;;;;4390815;32;20166;-64
2022/08/03 04:19:00;;;;;;;14.90;8.52;;;;;;;;;;4377752;32;20081;-64
2022/08/03 04:21:28;;;;;;;14.55;9.00;;;;;;;;;;4390444;32;20089;-65
2022/08/03 04:24:00;;;;;;;12.32;8.77;;;;;;;;;;4391341;32;20077;-64
2022/08/03 04:26:31;;;;;;;11.77;8.05;;;;;;;;;;4391198;32;20157;-65
2022/08/03 04:28:58;;;;;;;12.65;8.02;;;;;;;;;;4377434;32;20077;-64
2022/08/03 04:31:26;;;;;;;12.82;7.45;;;;;;;;;;4377302;32;20068;-65
2022/08/03 04:33:53;;;;;;;12.18;7.18;;;;;;;;;;4377530;32;20086;-64
2022/08/03 04:36:27;;;;;;;13.38;7.32;;;;;;;;;;4389957;32;20077;-64
2022/08/03 04:39:03;;;;;;;18.23;7.60;;;;;;;;;;4365035;32;20070;-64
2022/08/03 04:41:31;;;;;;;12.95;7.05;;;;;;;;;;4377984;32;20088;-64
2022/08/03 04:43:59;;;;;;;10.40;6.55;;;;;;;;;;4390179;32;20069;-65
2022/08/03 04:46:28;;;;;;;16.87;7.60;;;;;;;;;;4376978;32;20137;-64
2022/08/03 04:48:56;;;;;;;11.50;7.70;;;;;;;;;;4377051;32;20092;-65
2022/08/03 04:51:23;;;;;;;15.10;8.00;;;;;;;;;;4391140;32;20073;-64
2022/08/03 04:53:49;;;;;;;11.90;7.10;;;;;;;;;;4390407;32;20484;-64
2022/08/03 04:56:16;;;;;;;12.40;7.60;;;;;;;;;;4391337;32;20153;-64
2022/08/03 04:58:43;;;;;;;12.55;7.50;;;;;;;;;;4391010;32;20078;-64
2022/08/03 05:01:10;;;;;;;10.60;7.60;;;;;;;;;;4390825;32;20475;-65
2022/08/03 05:03:36;;;;;;;10.23;7.37;;;;;;;;;;4391101;32;20081;-64
2022/08/03 05:06:03;;;;;;;11.35;7.53;;;;;;;;;;4391397;32;20093;-63
2022/08/03 05:08:29;;;;;;;12.60;7.28;;;;;;;;;;4390900;32;20081;-64
2022/08/03 05:10:57;;;;;;;12.60;7.47;;;;;;;;;;4376875;32;20139;-64
2022/08/03 05:13:23;;;;;;;9.13;6.90;;;;;;;;;;4389331;32;20070;-64
2022/08/03 05:15:50;;;;;;;11.38;6.68;;;;;;;;;;4391520;32;20631;-64
2022/08/03 05:18:17;;;;;;;11.30;7.70;;;;;;;;;;4391289;32;20501;-65
2022/08/03 05:20:43;;;;;;;12.95;7.57;;;;;;;;;;4389586;32;20148;-65
2022/08/03 05:23:10;;;;;;;9.13;7.00;;;;;;;;;;4390785;32;20065;-64
2022/08/03 05:25:37;;;;;;;12.02;6.62;;;;;;;;;;4389298;32;20093;-64
2022/08/03 05:28:03;;;;;;;9.95;7.22;;;;;;;;;;4389365;32;20073;-65
2022/08/03 05:30:30;;;;;;;11.15;6.85;;;;;;;;;;4391055;32;20148;-65
2022/08/03 05:32:58;;;;;;;7.47;5.80;;;;;;;;;;4390655;32;20149;-65
2022/08/03 05:35:27;;;;;;;11.57;5.95;;;;;;;;;;4391039;32;20080;-64
2022/08/03 05:37:54;;;;;;;9.48;5.18;;;;;;;;;;4377028;32;20101;-65
2022/08/03 05:40:20;;;;;;;7.70;5.70;;;;;;;;;;4393344;32;20081;-65
2022/08/03 05:42:48;;;;;;;6.62;4.90;;;;;;;;;;4393812;32;20529;-65
2022/08/03 05:45:17;;;;;;;8.15;5.30;;;;;;;;;;4379658;32;20096;-64
2022/08/03 05:47:45;;;;;;;7.30;5.20;;;;;;;;;;4380318;32;20512;-63
2022/08/03 05:50:12;;;;;;;7.57;5.28;;;;;;;;;;4392166;32;20066;-64
2022/08/03 05:52:39;;;;;;;7.22;5.65;;;;;;;;;;4379472;32;20097;-64
2022/08/03 05:55:07;;;;;;;8.82;5.22;;;;;;;;;;4392010;32;20085;-63
2022/08/03 05:57:34;;;;;;;6.78;5.12;;;;;;;;;;4391997;32;20519;-65
2022/08/03 06:00:09;;;;;;;8.13;5.40;;;;;;;;;;4391558;32;20526;-63
2022/08/03 06:02:35;;;;;;;6.03;4.65;;;;;;;;;;4392420;32;20157;-64
2022/08/03 06:05:02;;;;;;;8.75;5.12;;;;;;;;;;4393255;32;20596;-64
2022/08/03 06:07:29;;;;;;;8.95;5.10;;;;;;;;;;4391625;32;20077;-64
2022/08/03 06:09:56;;;;;;;7.03;4.87;;;;;;;;;;4391571;32;20096;-65
2022/08/03 06:12:22;;;;;;;8.68;5.20;;;;;;;;;;4379082;32;20077;-65
2022/08/03 06:14:49;;;;;;;6.85;5.18;;;;;;;;;;4393234;32;20101;-64
2022/08/03 06:17:15;;;;;;;7.80;4.65;;;;;;;;;;4392344;32;20173;-63
2022/08/03 06:19:42;;;;;;;7.15;4.90;;;;;;;;;;4391591;32;20152;-65
2022/08/03 06:22:09;;;;;;;8.20;5.45;;;;;;;;;;4391555;32;20085;-65
2022/08/03 06:24:35;;;;;;;7.18;4.43;;;;;;;;;;4391639;32;20125;-63
2022/08/03 06:27:02;;;;;;;6.12;4.35;;;;;;;;;;4391782;32;20171;-65
2022/08/03 06:29:29;;;;;;;7.57;4.80;;;;;;;;;;4391423;32;20150;-65
2022/08/03 06:31:55;;;;;;;7.05;4.80;;;;;;;;;;4392822;32;20563;-64
2022/08/03 06:34:22;;;;;;;6.95;5.20;;;;;;;;;;4391533;32;20089;-65
2022/08/03 06:36:50;;;;;;;7.32;5.55;;;;;;;;;;4391171;32;20143;-65
2022/08/03 06:39:17;;;;;;;11.07;4.97;;;;;;;;;;4379021;32;20630;-65
2022/08/03 06:41:44;;;;;;;7.40;4.47;;;;;;;;;;4392773;32;20553;-63
2022/08/03 06:44:11;;;;;;;8.07;5.20;;;;;;;;;;4391315;32;20082;-64
2022/08/03 06:46:37;;;;;;;6.93;5.50;;;;;;;;;;4379358;32;20097;-63
2022/08/03 06:49:04;;;;;;;8.75;5.03;;;;;;;;;;4391152;32;20138;-65
2022/08/03 06:51:31;;;;;;;8.55;5.00;;;;;;;;;;4390286;32;20093;-64
2022/08/03 06:53:57;;;;;;;8.43;4.93;;;;;;;;;;4391770;32;20154;-64
2022/08/03 06:56:24;;;;;;;6.22;5.05;;;;;;;;;;4378735;32;20070;-65
2022/08/03 06:58:51;;;;;;;7.47;4.55;;;;;;;;;;4365899;32;20112;-65
2022/08/03 07:01:17;;;;;;;7.47;5.57;;;;;;;;;;4378491;32;20093;-64
2022/08/03 07:03:44;;;;;;;8.52;4.70;;;;;;;;;;4391027;32;20097;-64
2022/08/03 07:06:11;;;;;;;6.93;4.80;;;;;;;;;;4392442;32;20433;-63
2022/08/03 07:08:37;;;;;;;6.32;4.28;;;;;;;;;;4392476;32;20456;-64
2022/08/03 07:11:04;;;;;;;5.90;4.45;;;;;;;;;;4378319;32;20561;-65
2022/08/03 07:13:30;;;;;;;9.23;5.07;;;;;;;;;;4390697;32;20147;-64
2022/08/03 07:15:57;;;;;;;6.35;4.40;;;;;;;;;;4392119;32;20142;-64
2022/08/03 07:18:24;;;;;;;5.70;4.10;;;;;;;;;;4390646;32;20508;-65
2022/08/03 07:20:50;;;;;;;6.20;4.25;;;;;;;;;;4390858;32;20479;-64
2022/08/03 07:23:17;;;;;;;8.05;4.37;;;;;;;;;;4392136;32;20518;-64
2022/08/03 07:25:44;;;;;;;6.70;4.22;;;;;;;;;;4392272;32;20160;-64
2022/08/03 07:28:10;;;;;;;7.70;4.00;;;;;;;;;;4378715;32;20093;-62
2022/08/03 07:30:37;;;;;;;6.25;4.07;;;;;;;;;;4391977;32;20524;-64
2022/08/03 07:33:04;;;;;;;5.18;3.85;;;;;;;;;;4391630;32;20085;-64
2022/08/03 07:35:30;;;;;;;5.90;3.90;;;;;;;;;;4390655;32;20468;-65
2022/08/03 07:37:57;;;;;;;5.15;4.00;;;;;;;;;;4390352;32;20550;-64
2022/08/03 07:40:24;;;;;;;5.93;4.22;;;;;;;;;;4377976;32;20100;-66
2022/08/03 07:42:50;;;;;;;4.70;3.83;;;;;;;;;;4377885;32;20452;-64
2022/08/03 07:45:17;;;;;;;5.78;4.30;;;;;;;;;;4390247;32;20066;-65
2022/08/03 07:47:44;;;;;;;7.43;3.70;;;;;;;;;;4390289;32;20093;-63
2022/08/03 07:50:10;;;;;;;5.78;4.12;;;;;;;;;;4390216;32;20084;-64
2022/08/03 07:52:46;;;;;;;5.93;3.45;;;;;;;;;;4390412;32;20101;-65
2022/08/03 07:55:13;;;;;;;;;;;;;;;;;;4378893;32;20441;-64
2022/08/03 07:57:39;;;;;;;5.57;3.58;;;;;;;;;;4390890;32;19985;-65
2022/08/03 08:00:11;;;;;;;3.83;3.17;;;;;;;;;;4391794;32;20073;-65
2022/08/03 08:02:38;;;;;;;4.93;3.55;;;;;;;;;;4390056;32;20078;-64
2022/08/03 08:05:05;;;;;;;4.72;3.55;;;;;;;;;;4390965;32;20088;-65
2022/08/03 08:07:32;;;;;;;4.20;3.20;;;;;;;;;;4377613;32;20073;-63
2022/08/03 08:09:59;;;;;;;6.70;3.58;;;;;;;;;;4377315;32;20553;-64
2022/08/03 08:12:26;;;;;;;5.15;3.75;;;;;;;;;;4377540;32;20090;-64
2022/08/03 08:14:52;;;;;;;6.22;4.05;;;;;;;;;;4377454;32;20069;-64
2022/08/03 08:17:19;;;;;;;5.87;3.70;;;;;;;;;;4391562;32;20162;-64
2022/08/03 08:19:46;;;;;;;5.90;3.85;;;;;;;;;;4389851;32;20088;-64
2022/08/03 08:22:12;;;;;;;6.60;4.05;;;;;;;;;;4390136;32;20096;-64
2022/08/03 08:24:39;;;;;;;8.30;4.35;;;;;;;;;;4391241;32;20464;-65
2022/08/03 08:27:07;;;;;;;5.40;3.80;;;;;;;;;;4377392;32;20081;-65
2022/08/03 08:29:34;;;;;;;7.75;4.30;;;;;;;;;;4391370;32;20496;-65
2022/08/03 08:32:00;;;;;;;7.70;4.37;;;;;;;;;;4365152;32;20104;-64
2022/08/03 08:34:27;;;;;;;6.28;4.20;;;;;;;;;;4391509;32;20077;-64
2022/08/03 08:36:54;;;;;;;6.97;3.85;;;;;;;;;;4391431;32;20166;-64
2022/08/03 08:39:20;;;;;;;7.30;4.15;;;;;;;;;;4389845;32;20531;-65
2022/08/03 08:41:51;;;;;;;7.07;3.92;;;;;;;;;;4391097;32;20057;-64
2022/08/03 08:44:18;;;;;;;5.15;3.97;;;;;;;;;;4389868;32;20076;-64
2022/08/03 08:46:44;;;;;;;6.10;3.87;;;;;;;;;;4391468;32;20074;-64
2022/08/03 08:49:12;;;;;;;7.15;4.32;;;;;;;;;;4364845;32;20086;-65
2022/08/03 08:51:40;;;;;;;5.97;4.78;;;;;;;;;;4389790;32;20113;-64
2022/08/03 08:54:08;;;;;;;6.50;4.32;;;;;;;;;;4377278;32;20154;-64
2022/08/03 08:56:37;;;;;;;5.80;3.85;;;;;;;;;;4390199;32;20078;-64
2022/08/03 08:59:04;;;;;;;6.60;3.95;;;;;;;;;;4377838;32;20152;-65
2022/08/03 09:01:31;;;;;;;5.95;4.15;;;;;;;;;;4389842;32;20538;-64
2022/08/03 09:03:58;;;;;;;7.18;3.83;;;;;;;;;;4391268;32;20092;-64
2022/08/03 09:06:24;;;;;;;5.47;4.00;;;;;;;;;;4391076;32;20089;-64
2022/08/03 09:08:51;;;;;;;5.93;4.30;;;;;;;;;;4389594;32;20090;-64
2022/08/03 09:11:22;;;;;;;5.90;4.30;;;;;;;;;;4389821;32;20072;-64
2022/08/03 09:13:49;;;;;;;8.35;4.20;;;;;;;;;;4392996;32;20149;-64
2022/08/03 09:16:17;;;;;;;6.55;4.60;;;;;;;;;;4380675;32;20488;-64
2022/08/03 09:18:54;;;;;;;9.38;4.55;;;;;;;;;;4392763;32;20092;-64
2022/08/03 09:21:30;;;;;;;5.45;4.15;;;;;;;;;;4394022;32;20066;-64
2022/08/03 09:23:58;;;;;;;5.72;4.18;;;;;;;;;;4380181;32;20496;-64
2022/08/03 09:26:28;;;;;;;7.50;4.70;;;;;;;;;;4379712;32;20101;-64
2022/08/03 09:29:00;;;;;;;6.70;4.00;;;;;;;;;;4392319;32;20069;-64
2022/08/03 09:31:38;;;;;;;6.30;4.32;;;;;;;;;;4393065;32;20082;-64
2022/08/03 09:34:07;;;;;;;5.18;4.20;;;;;;;;;;4392377;32;20149;-64
2022/08/03 09:36:52;;;;;;;6.53;3.67;;;;;;;;;;4392314;32;20082;-63
2022/08/03 09:39:21;;;;;;;5.30;3.85;;;;;;;;;;4394187;32;20075;-64
2022/08/03 09:42:05;;;;;;;9.05;4.10;;;;;;;;;;4391965;32;20077;-64
2022/08/03 09:44:36;;;;;;;6.07;4.35;;;;;;;;;;4379788;32;20104;-65
2022/08/03 09:47:05;;;;;;;8.15;4.75;;;;;;;;;;4379688;32;20065;-64
2022/08/03 09:49:32;;;;;;;7.68;3.85;;;;;;;;;;4391992;32;20074;-64
2022/08/03 09:52:23;;;;;;;7.60;4.20;;;;;;;;;;4391658;32;20081;-65
2022/08/03 09:54:53;;;;;;;5.62;3.95;;;;;;;;;;4392665;32;20096;-64
2022/08/03 09:57:21;;;;;;;7.65;4.37;;;;;;;;;;4392555;32;20084;-64
2022/08/03 09:59:48;;;;;;;6.37;3.67;;;;;;;;;;4391983;32;20070;-63
2022/08/03 10:02:25;;;;;;;4.60;3.85;;;;;;;;;;4379645;32;20101;-64
2022/08/03 10:04:53;;;;;;;5.75;4.20;;;;;;;;;;4392179;32;20077;-63
2022/08/03 10:07:21;;;;;;;5.03;4.00;;;;;;;;;;4392331;32;20088;-64
2022/08/03 10:10:06;;;;;;;7.82;4.70;;;;;;;;;;4391919;32;20088;-64
2022/08/03 10:12:34;;;;;;;6.17;4.30;;;;;;;;;;4379219;32;20088;-65
2022/08/03 10:15:01;;;;;;;6.07;4.12;;;;;;;;;;4379576;32;20097;-64
2022/08/03 10:17:31;;;;;;;7.18;4.28;;;;;;;;;;4366937;32;20228;-65
2022/08/03 10:19:59;;;;;;;5.60;3.92;;;;;;;;;;4378987;32;20089;-65
2022/08/03 10:23:03;;;;;;;5.30;4.00;;;;;;;;;;4378844;32;20565;-65
